Time;durP1;ratioP1;P1;durP2;ratioP2;P2;SDS_P1;SDS_P2;PMS_P1;PMS_P2;Temp;Humidity;BMP_temperature;BMP_pressure;BME280_temperature;BME280_humidity;BME280_pressure;Samples;Min_cycle;Max_cycle;Signal;HPM_P1;HPM_P2
2023/05/31 00:03:30;;;;;;;5.40;2.60;;;;;;;16.47;34.46;100181.38;10388868;28;20336;-36
2023/05/31 00:08:31;;;;;;;3.07;2.20;;;;;;;16.07;34.94;100161.50;10388293;28;20976;-35
2023/05/31 00:13:34;;;;;;;4.93;2.07;;;;;;;17.45;33.57;100166.63;10391570;28;20306;-36
2023/05/31 00:18:36;;;;;;;5.93;2.30;;;;;;;16.56;34.59;100178.19;10395101;28;20224;-35
2023/05/31 00:23:38;;;;;;;3.83;2.27;;;;;;;16.02;35.44;100163.19;10395476;28;20236;-35
2023/05/31 00:28:39;;;;;;;4.17;2.33;;;;;;;15.57;36.23;100145.00;10391645;28;20213;-36
2023/05/31 00:33:43;;;;;;;5.03;2.20;;;;;;;15.24;36.57;100128.81;10394949;28;20236;-35
2023/05/31 00:38:45;;;;;;;3.03;2.17;;;;;;;15.35;36.82;100147.03;10393375;28;20233;-35
2023/05/31 00:43:47;;;;;;;4.83;2.60;;;;;;;15.85;36.68;100154.72;10394631;28;20229;-35
2023/05/31 00:48:49;;;;;;;5.43;2.00;;;;;;;16.13;36.01;100159.00;10393121;28;20225;-35
2023/05/31 00:53:54;;;;;;;4.13;2.30;;;;;;;16.70;36.09;100161.91;10394326;28;20302;-35
2023/05/31 00:58:58;;;;;;;2.63;2.30;;;;;;;16.00;37.18;100158.00;10390866;28;20606;-35
2023/05/31 01:04:01;;;;;;;8.43;2.50;;;;;;;15.56;37.84;100162.22;10391415;28;20830;-35
2023/05/31 01:09:07;;;;;;;6.57;2.93;;;;;;;15.72;37.42;100162.81;10394489;28;20641;-35
2023/05/31 01:14:21;;;;;;;3.93;2.30;;;;;;;15.71;37.50;100170.09;10392047;28;20236;-36
2023/05/31 01:19:55;;;;;;;3.20;2.40;;;;;;;15.60;37.54;100171.53;10391226;28;20225;-35
2023/05/31 01:25:21;;;;;;;5.90;2.20;;;;;;;15.94;37.72;100166.09;10386697;28;20987;-35
2023/05/31 01:30:24;;;;;;;4.97;2.40;;;;;;;16.29;37.22;100168.53;10393069;28;20294;-35
2023/05/31 01:35:27;;;;;;;4.93;2.27;;;;;;;15.92;37.52;100179.81;10392853;28;20299;-35
2023/05/31 01:40:30;;;;;;;2.87;2.20;;;;;;;14.21;39.67;100135.97;10390660;28;20240;-35
2023/05/31 01:45:33;;;;;;;4.67;2.53;;;;;;;15.10;38.87;100184.53;10388531;28;20279;-35
2023/05/31 01:50:36;;;;;;;5.43;2.60;;;;;;;14.42;39.32;100157.59;10388476;28;20235;-35
2023/05/31 01:55:38;;;;;;;5.57;2.67;;;;;;;14.42;39.64;100171.88;10388869;28;20248;-35
2023/05/31 02:00:41;;;;;;;4.17;2.80;;;;;;;15.11;39.25;100173.56;10391179;28;20266;-35
2023/05/31 02:05:59;;;;;;;4.33;2.60;;;;;;;14.93;39.36;100186.78;10389411;28;20315;-35
2023/05/31 02:11:01;;;;;;;4.10;2.37;;;;;;;15.09;39.43;100175.63;10390223;28;20224;-35
2023/05/31 02:16:03;;;;;;;4.33;2.60;;;;;;;15.12;39.71;100169.84;10363361;28;20244;-35
2023/05/31 02:21:06;;;;;;;3.27;2.30;;;;;;;14.51;40.54;100165.31;10347663;28;20312;-35
2023/05/31 02:26:07;;;;;;;3.70;2.47;;;;;;;14.65;39.93;100182.34;10349480;28;20341;-35
2023/05/31 02:31:10;;;;;;;4.60;2.60;;;;;;;13.88;41.26;100168.03;10344669;28;20718;-35
2023/05/31 02:36:12;;;;;;;4.83;2.37;;;;;;;13.60;41.50;100166.19;10349469;28;20867;-35
2023/05/31 02:41:14;;;;;;;6.00;2.90;;;;;;;13.84;41.25;100177.53;10348471;28;20245;-35
2023/05/31 02:46:16;;;;;;;3.63;2.40;;;;;;;14.02;40.59;100185.94;10346486;28;20230;-35
2023/05/31 02:51:18;;;;;;;6.47;2.50;;;;;;;13.12;42.15;100139.09;10348710;28;20229;-34
2023/05/31 02:56:20;;;;;;;7.80;2.93;;;;;;;14.36;41.21;100200.44;10344543;28;20224;-35
2023/05/31 03:01:22;;;;;;;5.40;2.83;;;;;;;15.26;39.62;100224.59;10349725;28;20233;-35
2023/05/31 03:06:24;;;;;;;4.00;2.53;;;;;;;14.48;40.77;100229.50;10344418;28;20360;-34
2023/05/31 03:11:26;;;;;;;4.63;2.40;;;;;;;14.62;40.36;100235.78;10351635;28;20236;-34
2023/05/31 03:16:28;;;;;;;6.07;2.60;;;;;;;15.35;39.39;100240.59;10375865;28;20706;-34
2023/05/31 03:21:30;;;;;;;6.00;3.00;;;;;;;15.24;39.28;100260.91;10390601;28;20260;-35
2023/05/31 03:26:32;;;;;;;5.03;2.30;;;;;;;14.78;39.84;100279.38;10386747;28;20789;-35
2023/05/31 03:31:34;;;;;;;5.03;2.90;;;;;;;14.87;39.93;100273.84;10391153;28;20883;-35
2023/05/31 03:36:36;;;;;;;3.10;2.53;;;;;;;14.24;40.98;100271.16;10380840;28;20599;-35
2023/05/31 03:41:38;;;;;;;5.37;3.00;;;;;;;14.48;40.15;100270.72;10383470;28;20224;-35
2023/05/31 03:46:40;;;;;;;4.93;2.60;;;;;;;14.09;41.29;100265.88;10384015;28;20247;-35
2023/05/31 03:51:42;;;;;;;6.57;2.83;;;;;;;13.94;41.00;100277.56;10388739;28;20232;-35
2023/05/31 03:56:44;;;;;;;8.13;2.97;;;;;;;15.01;40.13;100259.38;10375550;28;20464;-35
2023/05/31 04:01:45;;;;;;;4.73;2.70;;;;;;;14.80;40.54;100273.78;10381865;28;20970;-35
2023/05/31 04:06:47;;;;;;;4.67;2.80;;;;;;;13.79;41.67;100274.13;10375420;28;20267;-35
2023/05/31 04:11:49;;;;;;;4.03;2.80;;;;;;;13.74;41.23;100277.41;10379570;28;20224;-34
2023/05/31 04:16:51;;;;;;;7.20;3.20;;;;;;;14.96;39.79;100299.56;10374002;28;20316;-34
2023/05/31 04:21:53;;;;;;;3.40;2.53;;;;;;;14.34;41.63;100312.03;10375311;28;20244;-34
2023/05/31 04:26:55;;;;;;;4.77;2.93;;;;;;;15.12;40.56;100291.13;10377507;28;20347;-34
2023/05/31 04:31:58;;;;;;;4.70;2.73;;;;;;;14.74;41.04;100299.63;10376735;28;20236;-34
2023/05/31 04:37:02;;;;;;;6.73;3.00;;;;;;;14.22;41.70;100317.13;10378437;28;20232;-34
2023/05/31 04:42:05;;;;;;;7.10;2.90;;;;;;;14.86;41.28;100296.41;10377221;28;20252;-34
2023/05/31 04:47:08;;;;;;;6.67;2.90;;;;;;;14.56;41.74;100307.41;10379053;28;20241;-34
2023/05/31 04:52:10;;;;;;;9.63;3.10;;;;;;;14.91;41.21;100313.66;10378835;28;20232;-34
2023/05/31 04:57:11;;;;;;;4.27;2.67;;;;;;;13.87;42.46;100311.66;10379136;28;20291;-34
2023/05/31 05:02:13;;;;;;;6.80;3.23;;;;;;;15.82;40.54;100328.63;10378175;28;20315;-34
2023/05/31 05:07:16;;;;;;;4.33;2.70;;;;;;;16.19;40.50;100329.06;10377065;28;20319;-34
2023/05/31 05:12:18;;;;;;;6.27;2.70;;;;;;;15.62;40.65;100325.09;10376813;28;20792;-34
2023/05/31 05:17:20;;;;;;;4.20;2.57;;;;;;;15.59;40.74;100310.16;10376775;28;20888;-34
2023/05/31 05:22:22;;;;;;;6.30;2.70;;;;;;;15.76;40.78;100326.78;10376169;28;20252;-34
2023/05/31 05:27:23;;;;;;;5.97;2.60;;;;;;;16.47;40.47;100322.63;10372440;28;20310;-34
2023/05/31 05:32:25;;;;;;;4.77;2.57;;;;;;;15.20;41.32;100352.13;10377421;28;20229;-34
2023/05/31 05:37:27;;;;;;;5.77;3.00;;;;;;;15.26;41.21;100364.78;10384555;28;20232;-34
2023/05/31 05:42:31;;;;;;;5.67;2.90;;;;;;;14.49;41.28;100347.78;10382624;28;20310;-34
2023/05/31 05:47:34;;;;;;;6.30;2.70;;;;;;;16.87;40.07;100317.13;10382754;28;20238;-35
2023/05/31 05:52:37;;;;;;;5.07;2.63;;;;;;;14.88;41.41;100372.47;10330452;28;20225;-35
2023/05/31 05:57:38;;;;;;;6.53;2.70;;;;;;;16.30;40.78;100322.25;10338684;28;20842;-34
2023/05/31 06:02:43;;;;;;;6.70;2.70;;;;;;;16.92;39.41;100328.13;10374838;28;20240;-34
2023/05/31 06:07:45;;;;;;;4.87;2.40;;;;;;;15.34;40.93;100374.56;10382681;28;20223;-34
2023/05/31 06:12:47;;;;;;;4.20;2.73;;;;;;;17.14;39.63;100317.03;10384365;28;20303;-34
2023/05/31 06:17:49;;;;;;;7.20;2.70;;;;;;;15.43;40.01;100356.34;10377243;28;20232;-34
2023/05/31 06:22:51;;;;;;;4.80;2.43;;;;;;;17.78;39.12;100311.69;10383439;28;20809;-34
2023/05/31 06:27:53;;;;;;;5.53;2.67;;;;;;;17.06;39.46;100309.19;10380940;28;20251;-34
2023/05/31 06:32:56;;;;;;;5.70;2.40;;;;;;;16.78;39.53;100318.41;10378685;28;20248;-34
2023/05/31 06:37:58;;;;;;;4.13;2.50;;;;;;;16.58;38.99;100356.25;10394467;22;20232;-36
2023/05/31 06:42:59;;;;;;;7.33;3.00;;;;;;;18.19;38.26;100275.94;10381363;28;20251;-36
2023/05/31 06:48:01;;;;;;;5.67;2.73;;;;;;;17.39;38.53;100295.47;10421621;28;20236;-36
2023/05/31 06:53:03;;;;;;;5.50;2.37;;;;;;;18.34;38.65;100285.59;10419626;28;20228;-37
2023/05/31 06:58:05;;;;;;;6.40;2.93;;;;;;;17.94;38.23;100267.00;10423011;28;20227;-36
2023/05/31 07:03:07;;;;;;;5.87;2.30;;;;;;;18.92;37.70;100246.38;10422612;28;20796;-36
2023/05/31 07:08:10;;;;;;;5.40;2.73;;;;;;;17.08;38.63;100326.03;10419868;28;20285;-36
2023/05/31 07:13:11;;;;;;;6.50;2.70;;;;;;;17.54;38.10;100306.00;10425153;28;20232;-36
2023/05/31 07:18:13;;;;;;;5.07;2.43;;;;;;;16.78;38.54;100337.31;10418719;28;20230;-36
2023/05/31 07:23:15;;;;;;;5.67;2.53;;;;;;;18.49;37.34;100253.56;10432668;28;20215;-37
2023/05/31 07:28:17;;;;;;;4.90;2.40;;;;;;;17.92;38.05;100270.75;10433120;28;20689;-36
2023/05/31 07:33:19;;;;;;;5.90;2.67;;;;;;;19.39;36.98;100228.38;10437443;28;20257;-36
2023/05/31 07:38:30;;;;;;;6.40;2.53;;;;;;;19.22;36.64;100213.03;10423425;28;20248;-36
2023/05/31 07:43:32;;;;;;;5.70;2.72;;;;;;;18.88;36.53;100228.88;10432718;28;20326;-36
2023/05/31 07:48:34;;;;;;;6.00;2.55;;;;;;;18.59;37.02;100248.44;10431154;28;20240;-36
2023/05/31 07:53:36;;;;;;;4.03;2.80;;;;;;;18.76;36.50;100248.66;10425947;28;20588;-37
2023/05/31 07:58:38;;;;;;;5.77;2.67;;;;;;;20.03;35.60;100178.06;10428167;28;20347;-37
2023/05/31 08:03:41;;;;;;;9.55;2.40;;;;;;;19.92;35.70;100193.28;10431395;28;20219;-36
2023/05/31 08:08:43;;;;;;;4.53;2.87;;;;;;;19.38;35.94;100221.31;10428381;28;20372;-36
2023/05/31 08:13:45;;;;;;;5.70;2.38;;;;;;;18.63;35.86;100256.94;10429846;28;20236;-36
2023/05/31 08:18:48;;;;;;;4.97;2.85;;;;;;;19.45;35.52;100163.38;10407947;28;20667;-37
2023/05/31 08:23:50;;;;;;;5.63;3.30;;;;;;;19.26;35.58;100215.00;10428369;28;20225;-37
2023/05/31 08:28:52;;;;;;;5.15;2.70;;;;;;;19.87;34.93;100169.56;10428747;28;20334;-37
2023/05/31 08:33:58;;;;;;;6.05;2.88;;;;;;;20.16;35.75;100144.34;10430979;28;20660;-37
2023/05/31 08:39:00;;;;;;;3.72;2.20;;;;;;;20.03;34.96;100134.59;10421527;28;20243;-37
2023/05/31 08:44:05;;;;;;;6.65;2.80;;;;;;;19.83;35.14;100175.72;10428910;28;20216;-37
2023/05/31 08:49:10;;;;;;;3.92;2.38;;;;;;;21.56;34.10;100113.97;10423790;28;20728;-37
2023/05/31 08:54:13;;;;;;;4.70;2.90;;;;;;;20.21;34.46;100155.34;10426398;28;20235;-37
2023/05/31 08:59:18;;;;;;;4.15;2.50;;;;;;;21.45;34.51;100106.75;10427383;28;20235;-37
2023/05/31 09:04:20;;;;;;;3.97;2.40;;;;;;;20.86;34.43;100106.06;10428134;28;20224;-37
2023/05/31 09:09:22;;;;;;;4.63;2.50;;;;;;;20.87;34.82;100106.91;10430324;28;20232;-37
2023/05/31 09:14:27;;;;;;;8.15;2.65;;;;;;;21.48;33.93;100088.03;10419222;28;20685;-37
2023/05/31 09:19:30;;;;;;;5.30;2.50;;;;;;;21.39;34.06;100054.97;10435894;28;20207;-37
2023/05/31 09:24:31;;;;;;;4.05;2.58;;;;;;;21.03;34.37;100102.53;10431799;28;20235;-37
2023/05/31 09:29:36;;;;;;;6.00;2.85;;;;;;;20.75;34.48;100127.84;10432727;28;20282;-37
2023/05/31 09:34:38;;;;;;;4.18;2.50;;;;;;;21.16;33.75;100064.13;10431859;28;20802;-37
2023/05/31 09:39:54;;;;;;;5.10;3.00;;;;;;;22.61;33.47;100028.63;10431237;28;20219;-37
2023/05/31 09:44:59;;;;;;;6.90;2.75;;;;;;;22.10;33.75;100005.22;10422088;28;20231;-37
2023/05/31 09:50:01;;;;;;;5.15;2.58;;;;;;;20.86;34.20;100075.34;10433449;28;20251;-37
2023/05/31 09:55:07;;;;;;;7.43;2.75;;;;;;;21.86;33.98;100047.41;10436558;28;20231;-37
2023/05/31 10:00:20;;;;;;;5.07;2.20;;;;;;;21.46;33.39;100079.28;10431326;28;20664;-37
2023/05/31 10:05:22;;;;;;;5.50;2.75;;;;;;;23.88;32.50;99966.88;10432085;28;20608;-37
2023/05/31 10:10:24;;;;;;;5.40;2.42;;;;;;;22.34;33.34;100026.72;10421263;28;20224;-37
2023/05/31 10:15:27;;;;;;;5.55;2.40;;;;;;;23.84;32.23;99946.63;10428790;28;20379;-37
2023/05/31 10:20:48;;;;;;;6.78;2.67;;;;;;;23.02;32.50;99958.00;10429161;28;20232;-37
2023/05/31 10:25:56;;;;;;;4.93;2.45;;;;;;;24.09;31.61;99927.56;10427929;28;20232;-37
2023/05/31 10:31:00;;;;;;;3.30;2.50;;;;;;;23.06;31.81;99951.78;10410414;28;20227;-37
2023/05/31 10:36:02;;;;;;;4.15;2.35;;;;;;;23.85;31.43;99937.34;10428552;28;20587;-37
2023/05/31 10:41:15;;;;;;;5.10;2.53;;;;;;;22.53;31.33;100008.09;10426303;28;20338;-37
2023/05/31 10:46:30;;;;;;;7.30;2.45;;;;;;;23.80;31.29;99939.00;10429381;28;20323;-37
2023/05/31 10:51:46;;;;;;;6.03;2.50;;;;;;;23.48;30.67;99935.56;10429645;28;20227;-37
2023/05/31 10:56:58;;;;;;;7.63;2.92;;;;;;;22.34;30.87;99994.00;10427915;28;20823;-37
2023/05/31 11:06:30;;;;;;;9.85;3.58;;;;;;;23.80;31.36;99933.53;10448513;28;20800;-69
2023/05/31 11:11:32;;;;;;;4.65;2.38;;;;;;;22.69;30.82;99938.16;10437188;28;20907;-70
2023/05/31 11:16:54;;;;;;;5.30;2.50;;;;;;;22.49;31.14;99987.88;10457583;28;20238;-71
2023/05/31 11:21:59;;;;;;;3.95;2.15;;;;;;;22.97;30.79;99957.97;10444156;28;20235;-70
2023/05/31 11:27:02;;;;;;;5.55;2.58;;;;;;;24.05;30.53;99903.78;10452664;28;20247;-70
2023/05/31 11:32:05;;;;;;;4.60;2.33;;;;;;;23.71;30.52;99909.75;10458946;28;20231;-70
2023/05/31 11:37:07;;;;;;;4.32;2.10;;;;;;;23.28;30.20;99942.63;10449197;28;20335;-70
2023/05/31 11:42:10;;;;;;;4.05;2.22;;;;;;;23.08;30.71;99957.78;10461612;28;20231;-70
2023/05/31 11:47:25;;;;;;;5.38;2.13;;;;;;;24.18;29.64;99876.75;10452711;28;20769;-70
2023/05/31 11:52:26;;;;;;;5.53;2.50;;;;;;;23.60;29.75;99889.72;10421597;28;20229;-70
2023/05/31 11:57:28;;;;;;;2.95;2.00;;;;;;;23.19;30.44;99906.78;10419908;28;20296;-70
2023/05/31 12:02:30;;;;;;;4.63;2.63;;;;;;;23.49;29.81;99918.13;10433183;28;20374;-70
2023/05/31 12:07:32;;;;;;;6.53;2.30;;;;;;;23.18;29.93;99951.56;10437447;28;20239;-70
2023/05/31 12:12:35;;;;;;;4.97;2.50;;;;;;;23.67;30.19;99889.50;10452279;28;20216;-70
2023/05/31 12:17:37;;;;;;;7.05;2.40;;;;;;;23.48;30.11;99898.16;10431654;28;20794;-70
2023/05/31 12:22:40;;;;;;;2.65;1.98;;;;;;;24.08;29.48;99857.59;10422233;28;20232;-69
2023/05/31 12:27:41;;;;;;;3.55;2.20;;;;;;;22.64;30.24;99927.19;10416502;28;20895;-70
2023/05/31 12:32:47;;;;;;;6.20;2.20;;;;;;;22.59;30.35;99918.97;10430305;28;20239;-70
2023/05/31 12:37:50;;;;;;;3.25;2.30;;;;;;;22.90;30.31;99933.63;10425159;28;20843;-70
2023/05/31 12:42:59;;;;;;;4.00;2.22;;;;;;;23.99;29.45;99837.38;10404245;28;20237;-70
2023/05/31 12:48:01;;;;;;;5.20;2.13;;;;;;;23.94;30.12;99861.97;10423944;28;20235;-70
2023/05/31 12:53:06;;;;;;;5.35;2.35;;;;;;;24.47;29.84;99793.31;10429836;28;20262;-70
2023/05/31 12:58:08;;;;;;;5.53;2.25;;;;;;;24.71;29.76;99816.25;10427875;28;20243;-70
2023/05/31 13:03:13;;;;;;;3.20;2.53;;;;;;;24.60;29.66;99809.13;10413051;28;20274;-68
2023/05/31 13:08:16;;;;;;;3.38;2.65;;;;;;;24.60;29.90;99833.75;10415293;28;20924;-70
2023/05/31 13:13:18;;;;;;;5.53;2.05;;;;;;;24.06;29.13;99848.03;10412502;28;20676;-70
2023/05/31 13:18:20;;;;;;;5.18;2.10;;;;;;;23.76;29.47;99855.13;10417272;28;20208;-70
2023/05/31 13:23:21;;;;;;;2.70;2.00;;;;;;;23.61;28.94;99848.53;10411651;28;20235;-70
2023/05/31 13:28:24;;;;;;;4.15;2.30;;;;;;;24.61;29.13;99823.63;10419688;28;20219;-70
2023/05/31 13:33:28;;;;;;;2.80;2.03;;;;;;;23.11;29.68;99855.44;10421171;28;20642;-70
2023/05/31 13:38:30;;;;;;;6.40;2.30;;;;;;;23.24;29.45;99865.88;10427910;28;20212;-70
2023/05/31 13:43:33;;;;;;;3.78;2.17;;;;;;;24.20;28.94;99849.13;10431110;28;20297;-70
2023/05/31 13:48:38;;;;;;;6.13;2.15;;;;;;;23.89;28.99;99845.56;10429080;28;20251;-70
2023/05/31 13:53:40;;;;;;;3.45;1.95;;;;;;;22.87;30.20;99846.88;10427072;28;20301;-69
2023/05/31 13:58:41;;;;;;;6.70;2.75;;;;;;;23.23;29.45;99875.16;10406921;28;20236;-68
2023/05/31 14:03:43;;;;;;;4.93;2.47;;;;;;;24.12;28.94;99835.97;10405497;28;20402;-67
2023/05/31 14:08:45;;;;;;;4.18;2.30;;;;;;;23.49;29.13;99867.03;10422116;28;20305;-66
2023/05/31 14:13:48;;;;;;;4.38;2.00;;;;;;;24.63;29.42;99785.84;10424177;28;20244;-68
2023/05/31 14:18:50;;;;;;;5.05;2.50;;;;;;;24.61;28.82;99791.59;10421281;28;20293;-70
2023/05/31 14:23:56;;;;;;;4.80;2.92;;;;;;;23.97;28.65;99812.22;10392587;28;20354;-66
2023/05/31 14:28:57;;;;;;;11.60;3.08;;;;;;;25.53;27.99;99749.28;10402824;28;20252;-66
2023/05/31 14:33:59;;;;;;;2.80;1.80;;;;;;;24.70;28.07;99814.59;10400804;28;20231;-67
2023/05/31 14:39:01;;;;;;;6.00;2.33;;;;;;;24.92;27.46;99784.13;10389617;28;20236;-76
2023/05/31 14:44:03;;;;;;;5.90;2.20;;;;;;;25.47;27.75;99748.50;10407451;28;20236;-68
2023/05/31 14:49:05;;;;;;;7.18;2.05;;;;;;;25.34;27.90;99792.97;10399508;28;20697;-70
2023/05/31 14:54:07;;;;;;;4.80;2.05;;;;;;;24.90;28.14;99782.78;10392097;28;20249;-68
2023/05/31 14:59:08;;;;;;;4.22;2.15;;;;;;;24.80;27.97;99805.53;10402678;28;20203;-70
2023/05/31 15:04:11;;;;;;;2.92;1.73;;;;;;;24.84;27.11;99772.97;10409650;28;20237;-68
2023/05/31 15:09:13;;;;;;;3.03;2.10;;;;;;;25.18;27.08;99774.97;10419980;28;20299;-68
2023/05/31 15:14:15;;;;;;;4.90;2.08;;;;;;;24.36;26.82;99808.94;10419367;28;20235;-71
2023/05/31 15:19:16;;;;;;;6.13;1.95;;;;;;;23.78;27.44;99847.47;10395911;28;20253;-68
2023/05/31 15:24:18;;;;;;;3.17;2.25;;;;;;;24.19;27.32;99814.69;10397653;28;20274;-71
2023/05/31 15:29:20;;;;;;;3.40;2.22;;;;;;;24.31;27.31;99831.63;10387910;28;21087;-71
2023/05/31 15:34:22;;;;;;;3.70;2.05;;;;;;;24.76;26.96;99806.38;10400491;28;20232;-71
2023/05/31 15:39:24;;;;;;;4.78;2.40;;;;;;;25.17;26.83;99787.00;10406608;28;20232;-71
2023/05/31 15:44:26;;;;;;;5.20;2.17;;;;;;;24.92;26.63;99802.47;10403950;28;20232;-71
2023/05/31 15:49:27;;;;;;;4.60;2.00;;;;;;;24.54;26.81;99802.03;10396629;28;20241;-71
2023/05/31 15:54:29;;;;;;;5.93;2.10;;;;;;;24.61;26.55;99827.16;10409106;28;20240;-70
2023/05/31 15:59:31;;;;;;;5.10;2.05;;;;;;;24.44;25.57;99797.41;10416172;28;20290;-72
2023/05/31 16:04:33;;;;;;;4.85;1.85;;;;;;;25.41;26.05;99755.13;10407849;28;20319;-71
2023/05/31 16:09:35;;;;;;;3.53;2.45;;;;;;;24.69;26.43;99806.66;10405773;28;20339;-72
2023/05/31 16:14:37;;;;;;;4.95;1.80;;;;;;;23.93;26.13;99809.22;10411004;28;20235;-71
2023/05/31 16:19:38;;;;;;;3.63;1.88;;;;;;;25.43;26.06;99780.31;10408089;28;20237;-67
2023/05/31 16:24:40;;;;;;;3.10;1.92;;;;;;;25.51;25.45;99767.94;10411305;28;20260;-68
2023/05/31 16:29:42;;;;;;;2.55;1.75;;;;;;;25.54;25.25;99730.91;10401956;28;20316;-68
2023/05/31 16:34:45;;;;;;;2.80;1.83;;;;;;;24.37;26.12;99811.38;10407997;28;20966;-66
2023/05/31 16:39:47;;;;;;;3.10;1.88;;;;;;;25.95;25.33;99730.59;10405141;28;20564;-68
2023/05/31 16:44:49;;;;;;;4.45;1.90;;;;;;;24.90;26.06;99802.75;10396927;28;20282;-69
2023/05/31 16:49:50;;;;;;;3.90;2.00;;;;;;;25.68;25.47;99731.09;10412058;28;20332;-69
2023/05/31 16:54:52;;;;;;;3.95;2.10;;;;;;;23.99;26.03;99832.72;10407538;28;20241;-68
2023/05/31 16:59:54;;;;;;;3.33;2.40;;;;;;;24.49;26.00;99813.00;10414790;28;20223;-68
2023/05/31 17:04:56;;;;;;;5.18;2.28;;;;;;;25.70;25.29;99743.38;10401728;28;20263;-68
2023/05/31 17:09:57;;;;;;;3.78;1.90;;;;;;;24.66;25.80;99799.81;10408149;28;20243;-71
2023/05/31 17:14:59;;;;;;;4.28;1.80;;;;;;;25.77;25.64;99719.22;10403131;28;20232;-67
2023/05/31 17:20:03;;;;;;;3.88;1.88;;;;;;;24.48;26.27;99787.56;10408432;28;20238;-69
2023/05/31 17:25:05;;;;;;;3.40;2.00;;;;;;;25.29;25.95;99754.66;10417358;28;20263;-70
2023/05/31 17:30:07;;;;;;;3.13;2.10;;;;;;;24.78;25.91;99763.13;10402444;28;20452;-70
2023/05/31 17:35:09;;;;;;;4.10;2.10;;;;;;;23.97;26.47;99787.63;10416133;28;20286;-70
2023/05/31 17:40:14;;;;;;;3.60;1.85;;;;;;;23.80;27.10;99810.59;10405988;28;20223;-70
2023/05/31 17:45:16;;;;;;;3.60;2.13;;;;;;;24.83;26.46;99760.38;10410925;28;20232;-67
2023/05/31 17:50:18;;;;;;;3.08;2.10;;;;;;;23.46;27.18;99810.25;10426039;28;20252;-67
2023/05/31 17:55:21;;;;;;;4.03;2.05;;;;;;;24.04;26.78;99798.28;10408157;28;20255;-66
2023/05/31 18:00:23;;;;;;;4.85;2.10;;;;;;;23.95;27.45;99795.28;10416954;28;21022;-66
2023/05/31 18:05:25;;;;;;;4.68;2.10;;;;;;;23.90;27.15;99790.63;10348730;28;20290;-66
2023/05/31 18:10:27;;;;;;;6.80;2.55;;;;;;;23.63;27.32;99797.19;10363684;28;20290;-65
2023/05/31 18:15:29;;;;;;;5.38;2.10;;;;;;;24.14;27.29;99787.31;10363634;28;20799;-66
2023/05/31 18:20:31;;;;;;;7.78;2.28;;;;;;;24.81;27.03;99762.56;10365474;28;20239;-66
2023/05/31 18:25:33;;;;;;;3.97;2.17;;;;;;;23.45;27.66;99801.22;10375266;28;20252;-65
2023/05/31 18:30:35;;;;;;;6.78;2.03;;;;;;;24.50;27.28;99768.16;10365496;28;20231;-68
2023/05/31 18:35:37;;;;;;;4.68;1.90;;;;;;;23.72;27.68;99813.03;10360584;28;20871;-67
2023/05/31 18:40:38;;;;;;;5.22;2.20;;;;;;;25.30;26.65;99759.03;10374367;28;20232;-66
2023/05/31 18:45:40;;;;;;;6.22;2.30;;;;;;;23.45;27.83;99800.44;10379217;28;20246;-65
2023/05/31 18:50:42;;;;;;;3.88;2.30;;;;;;;23.69;27.86;99816.31;10338547;28;20232;-69
2023/05/31 18:55:49;;;;;;;4.10;2.20;;;;;;;23.83;27.77;99805.66;10336829;28;20229;-65
2023/05/31 19:00:51;;;;;;;5.30;1.92;;;;;;;24.09;27.51;99811.94;10336737;28;20236;-66
2023/05/31 19:05:52;;;;;;;3.13;2.00;;;;;;;23.75;28.22;99826.16;10371617;28;20232;-67
2023/05/31 19:10:54;;;;;;;3.72;2.10;;;;;;;24.16;27.97;99777.78;10337558;28;20240;-68
2023/05/31 19:15:56;;;;;;;7.28;2.10;;;;;;;24.22;28.15;99799.66;10342142;28;20322;-64
2023/05/31 19:20:58;;;;;;;4.88;2.17;;;;;;;23.61;28.20;99828.59;10374437;28;20233;-65
2023/05/31 19:26:00;;;;;;;2.60;2.20;;;;;;;23.86;28.59;99819.59;10381727;28;20283;-68
2023/05/31 19:31:02;;;;;;;4.50;2.53;;;;;;;23.69;28.82;99816.31;10384468;28;20228;-66
2023/05/31 19:36:03;;;;;;;7.53;2.47;;;;;;;24.04;28.44;99831.06;10393679;28;20326;-66
2023/05/31 19:41:05;;;;;;;3.17;1.90;;;;;;;23.89;28.36;99812.78;9449023;28;10000518;-66
2023/05/31 19:46:22;;;;;;;4.47;2.30;;;;;;;22.18;29.27;99829.50;10355799;28;20244;-68
2023/05/31 19:51:24;;;;;;;4.40;2.83;;;;;;;24.26;28.46;99804.31;10321272;28;20716;-66
2023/05/31 19:56:26;;;;;;;4.57;2.25;;;;;;;23.77;28.65;99835.72;10306973;28;20238;-68
2023/05/31 20:01:28;;;;;;;4.00;2.13;;;;;;;23.32;28.93;99863.72;10307630;28;20667;-65
2023/05/31 20:06:30;;;;;;;7.75;2.20;;;;;;;21.83;30.08;99836.31;10308941;28;20244;-65
2023/05/31 20:11:36;;;;;;;5.82;2.30;;;;;;;22.26;30.09;99875.34;10314024;28;20326;-65
2023/05/31 20:16:38;;;;;;;3.70;2.53;;;;;;;22.38;30.22;99869.72;10306028;28;20906;-67
2023/05/31 20:21:40;;;;;;;4.82;1.85;;;;;;;20.98;30.90;99844.06;10306335;28;20234;-67
2023/05/31 20:26:41;;;;;;;5.95;2.20;;;;;;;20.56;31.48;99845.34;10310217;28;20996;-66
2023/05/31 20:31:43;;;;;;;3.95;2.38;;;;;;;20.49;31.98;99870.00;10297686;28;20327;-67
2023/05/31 20:36:45;;;;;;;4.22;2.22;;;;;;;20.45;32.11;99879.72;10309499;28;20241;-66
2023/05/31 20:41:47;;;;;;;5.55;2.50;;;;;;;20.17;32.84;99882.53;10304115;28;20322;-67
2023/05/31 20:46:48;;;;;;;6.85;2.50;;;;;;;19.46;33.65;99867.34;10309333;28;20249;-68
2023/05/31 20:51:51;;;;;;;4.97;2.45;;;;;;;19.68;33.11;99883.00;10312713;28;20921;-69
2023/05/31 20:56:53;;;;;;;4.30;2.58;;;;;;;20.05;32.99;99894.25;10303729;28;20238;-69
2023/05/31 21:01:55;;;;;;;4.15;2.30;;;;;;;19.70;32.87;99884.38;10305143;28;20234;-68
2023/05/31 21:06:57;;;;;;;4.60;2.30;;;;;;;20.38;32.45;99892.66;10305041;28;20292;-68
2023/05/31 21:11:59;;;;;;;6.45;2.10;;;;;;;19.85;32.93;99897.44;10319804;28;20808;-68
2023/05/31 21:17:01;;;;;;;4.47;2.38;;;;;;;19.89;33.33;99893.19;10332556;28;20283;-69
2023/05/31 21:22:03;;;;;;;4.05;2.08;;;;;;;19.67;33.43;99900.34;10337322;28;20236;-69
2023/05/31 21:27:05;;;;;;;5.82;2.30;;;;;;;22.73;31.24;99832.09;10334789;28;20232;-68
2023/05/31 21:32:07;;;;;;;5.05;2.35;;;;;;;23.30;30.29;99831.25;10337416;28;20318;-69
2023/05/31 21:37:12;;;;;;;5.53;2.40;;;;;;;22.59;31.36;99891.69;10340280;28;20260;-69
2023/05/31 21:42:13;;;;;;;6.32;2.25;;;;;;;21.90;31.13;99898.75;10335647;28;20237;-69
2023/05/31 21:47:15;;;;;;;4.05;2.28;;;;;;;20.49;32.83;99912.66;10333881;28;20255;-69
2023/05/31 21:52:17;;;;;;;3.25;2.05;;;;;;;21.63;32.17;99907.72;10336834;28;20229;-69
2023/05/31 21:57:19;;;;;;;5.70;2.28;;;;;;;21.52;32.26;99916.84;10331134;28;20233;-69
2023/05/31 22:02:20;;;;;;;5.80;2.40;;;;;;;21.75;31.85;99897.50;10335789;28;20241;-69
2023/05/31 22:07:22;;;;;;;3.65;2.60;;;;;;;19.18;34.48;99944.09;10337315;28;20868;-69
2023/05/31 22:12:24;;;;;;;3.63;2.10;;;;;;;21.50;32.64;99884.44;10338236;28;20312;-69
2023/05/31 22:17:26;;;;;;;3.28;2.08;;;;;;;21.19;32.42;99929.50;10338856;28;20240;-69
2023/05/31 22:22:28;;;;;;;7.47;2.30;;;;;;;20.88;32.24;99958.97;10340169;28;20348;-69
2023/05/31 22:27:30;;;;;;;5.45;2.30;;;;;;;19.48;33.06;99959.38;10334454;28;20229;-68
2023/05/31 22:32:32;;;;;;;6.60;2.28;;;;;;;20.15;32.52;99974.28;10333211;28;20229;-69
2023/05/31 22:37:34;;;;;;;4.15;2.40;;;;;;;19.19;33.30;99957.44;10336565;28;20237;-68
2023/05/31 22:42:36;;;;;;;7.00;2.33;;;;;;;19.89;32.84;99974.63;10336879;28;20884;-69
2023/05/31 22:47:38;;;;;;;3.75;2.60;;;;;;;20.28;32.83;99974.03;10336959;28;20923;-68
2023/05/31 22:52:40;;;;;;;4.70;2.25;;;;;;;20.80;32.87;99970.25;10333703;28;20237;-68
2023/05/31 22:57:42;;;;;;;5.50;2.45;;;;;;;20.17;33.36;99983.03;10330053;28;20240;-68
2023/05/31 23:02:44;;;;;;;3.22;2.00;;;;;;;20.86;33.08;99961.09;10331526;28;20270;-68
2023/05/31 23:07:46;;;;;;;5.28;2.25;;;;;;;20.85;33.18;99949.41;10333307;28;20356;-68
2023/05/31 23:12:48;;;;;;;4.00;2.40;;;;;;;21.59;33.31;99926.47;10333815;28;20237;-68
2023/05/31 23:17:50;;;;;;;8.07;2.47;;;;;;;21.15;33.37;99942.75;10330686;28;20225;-68
2023/05/31 23:22:51;;;;;;;5.05;2.50;;;;;;;20.42;33.40;99972.63;10334350;28;20237;-68
2023/05/31 23:27:53;;;;;;;4.90;2.22;;;;;;;19.67;34.21;99987.22;10339249;28;20233;-68